createdAt,value
2018-05-04T00:00:17.029Z,99.90
2018-05-04T00:02:43.578Z,99.90
2018-05-04T00:05:09.907Z,99.90
2018-05-04T00:07:36.182Z,99.90
2018-05-04T00:10:02.395Z,99.90
2018-05-04T00:12:28.799Z,99.90
2018-05-04T00:14:55.823Z,99.90
2018-05-04T00:17:22.028Z,99.90
2018-05-04T00:19:48.293Z,99.90
2018-05-04T00:22:15.395Z,99.90
2018-05-04T00:24:41.679Z,99.90
2018-05-04T00:27:07.898Z,99.90
2018-05-04T00:29:34.170Z,99.90
2018-05-04T00:32:00.450Z,99.90
2018-05-04T00:34:28.181Z,99.90
2018-05-04T00:36:54.486Z,99.90
2018-05-04T00:39:20.868Z,99.90
2018-05-04T00:41:47.234Z,99.90
2018-05-04T00:44:14.157Z,99.90
2018-05-04T00:46:40.415Z,99.90
2018-05-04T00:49:06.628Z,99.90
2018-05-04T00:51:33.762Z,99.90
2018-05-04T00:54:12.303Z,99.90
2018-05-04T00:56:39.394Z,99.90
2018-05-04T00:59:05.731Z,99.90
2018-05-04T01:01:31.935Z,99.90
2018-05-04T01:03:58.155Z,99.90
2018-05-04T01:06:24.386Z,99.90
2018-05-04T01:08:50.612Z,99.90
2018-05-04T01:11:16.987Z,99.90
2018-05-04T01:13:43.399Z,99.90
2018-05-04T01:16:09.675Z,99.90
2018-05-04T01:18:36.675Z,99.90
2018-05-04T01:21:03.036Z,99.90
2018-05-04T01:23:30.116Z,99.90
2018-05-04T01:25:56.254Z,99.90
2018-05-04T01:28:22.529Z,99.70
2018-05-04T01:30:48.876Z,99.00
2018-05-04T01:33:15.843Z,99.90
2018-05-04T01:35:42.250Z,99.90
2018-05-04T01:38:09.263Z,99.90
2018-05-04T01:40:36.229Z,99.90
2018-05-04T01:43:03.208Z,99.90
2018-05-04T01:45:29.389Z,99.90
2018-05-04T01:47:55.691Z,99.90
2018-05-04T01:50:22.031Z,99.90
2018-05-04T01:52:48.443Z,99.90
2018-05-04T01:55:14.727Z,99.90
2018-05-04T01:57:41.804Z,99.90
2018-05-04T02:00:08.055Z,99.90
2018-05-04T02:02:34.257Z,99.90
2018-05-04T02:05:00.561Z,99.90
2018-05-04T02:07:27.680Z,99.90
2018-05-04T02:09:54.013Z,99.90
2018-05-04T02:12:20.373Z,99.90
2018-05-04T02:14:47.376Z,99.90
2018-05-04T02:17:13.721Z,99.90
2018-05-04T02:19:39.909Z,99.90
2018-05-04T02:22:06.105Z,99.90
2018-05-04T02:24:32.384Z,99.90
2018-05-04T02:26:58.587Z,99.90
2018-05-04T02:29:24.967Z,99.90
2018-05-04T02:31:51.236Z,99.90
2018-05-04T02:34:17.496Z,99.90
2018-05-04T02:36:43.896Z,99.90
2018-05-04T02:39:10.108Z,99.90
2018-05-04T02:41:36.509Z,99.90
2018-05-04T02:44:02.753Z,99.90
2018-05-04T02:46:28.971Z,99.90
2018-05-04T02:48:55.993Z,99.90
2018-05-04T02:51:22.265Z,99.90
2018-05-04T02:53:48.493Z,99.90
2018-05-04T02:56:14.799Z,99.90
2018-05-04T02:58:41.752Z,99.90
2018-05-04T03:01:08.705Z,99.90
2018-05-04T03:03:34.898Z,99.90
2018-05-04T03:06:01.127Z,99.90
2018-05-04T03:08:27.441Z,99.90
2018-05-04T03:10:53.652Z,99.90
2018-05-04T03:13:20.214Z,99.90
2018-05-04T03:15:46.426Z,99.90
2018-05-04T03:18:12.780Z,99.90
2018-05-04T03:20:39.008Z,99.90
2018-05-04T03:23:05.315Z,99.90
2018-05-04T03:25:31.516Z,99.90
2018-05-04T03:27:57.734Z,99.90
2018-05-04T03:30:24.038Z,99.90
2018-05-04T03:32:51.251Z,99.90
2018-05-04T03:35:17.414Z,99.90
2018-05-04T03:37:44.520Z,99.90
2018-05-04T03:40:10.756Z,99.90
2018-05-04T03:42:36.928Z,99.90
2018-05-04T03:45:03.320Z,99.90
2018-05-04T03:47:30.419Z,99.90
2018-05-04T03:49:56.782Z,99.90
2018-05-04T03:52:23.153Z,99.90
2018-05-04T03:54:50.270Z,99.90
2018-05-04T03:57:28.828Z,99.90
2018-05-04T04:03:08.637Z,99.90
2018-05-04T04:05:34.976Z,99.90
2018-05-04T04:08:01.259Z,99.90
2018-05-04T04:10:27.628Z,99.90
2018-05-04T04:12:53.972Z,99.90
2018-05-04T04:15:21.044Z,99.90
2018-05-04T04:17:47.965Z,99.90
2018-05-04T04:20:14.382Z,99.90
2018-05-04T04:22:40.637Z,99.90
2018-05-04T04:25:06.943Z,99.90
2018-05-04T04:27:33.204Z,99.90
2018-05-04T04:30:00.310Z,99.90
2018-05-04T04:32:26.666Z,99.90
2018-05-04T04:34:52.926Z,99.90
2018-05-04T04:37:19.105Z,99.90
2018-05-04T04:39:45.366Z,99.90
2018-05-04T04:42:12.477Z,99.90
2018-05-04T04:44:38.862Z,99.90
2018-05-04T04:47:05.311Z,99.90
2018-05-04T04:49:31.593Z,99.90
2018-05-04T04:51:57.866Z,99.90
2018-05-04T04:54:24.108Z,99.90
2018-05-04T04:56:50.428Z,99.90
2018-05-04T04:59:16.652Z,99.90
2018-05-04T05:01:42.858Z,99.90
2018-05-04T05:04:09.084Z,99.90
2018-05-04T05:06:35.342Z,99.90
2018-05-04T05:09:01.577Z,99.90
2018-05-04T05:11:27.934Z,99.90
2018-05-04T05:13:55.098Z,99.90
2018-05-04T05:16:22.113Z,99.90
2018-05-04T05:18:48.399Z,99.90
2018-05-04T05:21:14.745Z,99.90
2018-05-04T05:23:40.960Z,99.90
2018-05-04T05:26:07.282Z,99.90
2018-05-04T05:28:33.505Z,99.90
2018-05-04T05:30:59.834Z,99.90
2018-05-04T05:33:26.262Z,99.90
2018-05-04T05:35:52.953Z,99.90
2018-05-04T05:38:19.197Z,99.90
2018-05-04T05:40:45.613Z,99.90
2018-05-04T05:43:11.839Z,99.90
2018-05-04T05:45:38.297Z,99.90
2018-05-04T05:48:04.524Z,99.90
2018-05-04T05:50:30.891Z,99.90
2018-05-04T05:52:57.259Z,99.90
2018-05-04T05:55:23.536Z,99.90
2018-05-04T05:57:49.912Z,99.90
2018-05-04T06:00:16.181Z,99.90
2018-05-04T06:02:43.202Z,99.90
2018-05-04T06:05:10.248Z,99.90
2018-05-04T06:07:36.619Z,99.90
2018-05-04T06:10:03.099Z,99.90
2018-05-04T06:12:29.378Z,99.90
2018-05-04T06:14:55.820Z,99.90
2018-05-04T06:17:22.828Z,99.90
2018-05-04T06:19:49.124Z,99.90
2018-05-04T06:22:15.454Z,99.90
2018-05-04T06:24:41.741Z,99.10
2018-05-04T06:27:08.073Z,92.20
2018-05-04T06:29:34.312Z,90.10
2018-05-04T06:32:00.803Z,91.60
2018-05-04T06:34:28.169Z,89.10
2018-05-04T06:36:55.106Z,81.80
2018-05-04T06:39:22.575Z,83.30
2018-05-04T06:41:49.630Z,86.50
2018-05-04T06:44:16.655Z,89.10
2018-05-04T06:46:43.016Z,89.00
2018-05-04T06:49:09.402Z,90.10
2018-05-04T06:51:35.695Z,88.80
2018-05-04T06:54:02.043Z,89.60
2018-05-04T06:56:28.316Z,90.40
2018-05-04T06:58:55.301Z,83.60
2018-05-04T07:01:21.532Z,83.70
2018-05-04T07:03:47.768Z,87.10
2018-05-04T07:06:14.098Z,86.80
2018-05-04T07:08:40.329Z,82.30
2018-05-04T07:11:06.564Z,84.30
2018-05-04T07:13:32.822Z,85.90
2018-05-04T07:16:00.022Z,77.90
2018-05-04T07:18:26.332Z,77.80
2018-05-04T07:20:52.561Z,77.60
2018-05-04T07:23:18.971Z,76.20
2018-05-04T07:25:45.281Z,75.60
2018-05-04T07:28:12.215Z,71.90
2018-05-04T07:30:38.687Z,71.90
2018-05-04T07:33:04.954Z,72.80
2018-05-04T07:35:31.271Z,74.10
2018-05-04T07:37:57.619Z,65.60
2018-05-04T07:40:24.697Z,68.30
2018-05-04T07:42:52.159Z,66.80
2018-05-04T07:45:19.093Z,65.40
2018-05-04T07:47:46.118Z,62.70
2018-05-04T07:50:12.497Z,62.70
2018-05-04T07:52:38.781Z,64.30
2018-05-04T07:55:05.808Z,61.80
2018-05-04T07:57:31.984Z,62.00
2018-05-04T07:59:59.101Z,63.20
2018-05-04T08:02:25.468Z,63.10
2018-05-04T08:04:51.720Z,56.50
2018-05-04T08:07:18.035Z,60.20
2018-05-04T08:09:44.408Z,57.70
2018-05-04T08:12:10.637Z,59.50
2018-05-04T08:14:38.105Z,56.90
2018-05-04T08:17:04.388Z,56.90
2018-05-04T08:19:30.644Z,57.80
2018-05-04T08:21:56.960Z,58.40
2018-05-04T08:24:23.210Z,55.00
2018-05-04T08:26:49.426Z,55.30
2018-05-04T08:29:15.710Z,56.40
2018-05-04T08:31:42.007Z,54.50
2018-05-04T08:34:09.408Z,52.80
2018-05-04T08:36:35.873Z,54.60
2018-05-04T08:39:02.377Z,52.50
2018-05-04T08:41:28.678Z,52.20
2018-05-04T08:43:55.874Z,52.30
2018-05-04T08:46:22.065Z,52.20
2018-05-04T08:48:48.350Z,51.60
2018-05-04T08:51:15.472Z,51.30
2018-05-04T08:53:41.568Z,51.50
2018-05-04T08:56:08.050Z,52.80
2018-05-04T08:58:34.411Z,49.90
2018-05-04T09:01:01.553Z,50.90
2018-05-04T09:03:27.775Z,50.90
2018-05-04T09:05:54.021Z,50.60
2018-05-04T09:08:20.975Z,47.50
2018-05-04T09:10:47.281Z,47.50
2018-05-04T09:13:13.599Z,49.40
2018-05-04T09:15:39.793Z,47.60
2018-05-04T09:18:06.263Z,48.60
2018-05-04T09:20:32.668Z,52.90
2018-05-04T09:22:59.104Z,51.10
2018-05-04T09:25:25.516Z,51.20
2018-05-04T09:27:51.711Z,48.30
2018-05-04T09:30:17.968Z,48.10
2018-05-04T09:32:44.252Z,50.00
2018-05-04T09:35:11.212Z,49.40
2018-05-04T09:37:38.256Z,48.30
2018-05-04T09:40:05.235Z,47.20
2018-05-04T09:42:31.472Z,47.30
2018-05-04T09:44:57.701Z,48.20
2018-05-04T09:47:24.073Z,48.60
2018-05-04T09:49:51.085Z,49.70
2018-05-04T09:52:17.374Z,49.60
2018-05-04T09:54:43.576Z,47.60
2018-05-04T09:57:10.823Z,52.20
2018-05-04T09:59:37.173Z,52.10
2018-05-04T10:02:03.497Z,48.80
2018-05-04T10:04:30.599Z,49.60
2018-05-04T10:06:57.001Z,49.50
2018-05-04T10:09:23.271Z,50.40
2018-05-04T10:11:49.702Z,48.70
2018-05-04T10:14:16.973Z,48.40
2018-05-04T10:16:44.193Z,46.30
2018-05-04T10:19:10.412Z,46.30
2018-05-04T10:21:36.717Z,47.90
2018-05-04T10:24:03.005Z,48.60
2018-05-04T10:26:29.361Z,49.20
2018-05-04T10:28:55.617Z,47.50
2018-05-04T10:31:22.021Z,45.60
2018-05-04T10:33:48.424Z,46.40
2018-05-04T10:36:15.062Z,45.60
2018-05-04T10:38:41.365Z,44.10
2018-05-04T10:41:08.568Z,45.50
2018-05-04T10:43:34.850Z,45.20
2018-05-04T10:46:01.187Z,45.80
2018-05-04T10:48:27.511Z,46.60
2018-05-04T10:50:53.848Z,46.90
2018-05-04T10:53:20.123Z,44.70
2018-05-04T10:55:46.361Z,46.30
2018-05-04T10:58:12.648Z,45.30
2018-05-04T11:00:39.624Z,46.30
2018-05-04T11:03:05.866Z,46.20
2018-05-04T11:05:32.411Z,45.30
2018-05-04T11:07:58.906Z,47.20
2018-05-04T11:10:26.040Z,48.40
2018-05-04T11:12:52.975Z,48.80
2018-05-04T11:15:19.797Z,48.70
2018-05-04T11:17:46.121Z,48.80
2018-05-04T11:20:12.428Z,46.80
2018-05-04T11:22:38.677Z,46.80
2018-05-04T11:25:04.938Z,46.70
2018-05-04T11:27:31.884Z,46.20
2018-05-04T11:29:59.121Z,46.50
2018-05-04T11:32:25.674Z,46.50
2018-05-04T11:34:52.594Z,45.50
2018-05-04T11:37:18.862Z,45.40
2018-05-04T11:39:45.072Z,45.20
2018-05-04T11:42:12.291Z,49.10
2018-05-04T11:44:38.576Z,48.60
2018-05-04T11:47:04.800Z,47.50
2018-05-04T11:49:31.145Z,47.30
2018-05-04T11:51:57.500Z,48.30
2018-05-04T11:54:23.739Z,48.50
2018-05-04T11:56:50.725Z,49.00
2018-05-04T11:59:16.990Z,49.40
2018-05-04T12:01:43.207Z,47.50
2018-05-04T12:04:09.659Z,47.30
2018-05-04T12:06:36.057Z,47.80
2018-05-04T12:09:02.374Z,47.40
2018-05-04T12:11:28.766Z,48.20
2018-05-04T12:13:55.103Z,48.50
2018-05-04T12:16:21.531Z,48.40
2018-05-04T12:18:47.780Z,49.30
2018-05-04T12:21:14.836Z,48.80
2018-05-04T12:23:41.939Z,50.20
2018-05-04T12:26:08.336Z,50.20
2018-05-04T12:28:34.558Z,52.90
2018-05-04T12:31:00.853Z,49.70
2018-05-04T12:33:27.393Z,49.30
2018-05-04T12:35:54.468Z,51.30
2018-05-04T12:38:20.665Z,51.30
2018-05-04T12:40:47.063Z,50.60
2018-05-04T12:43:13.254Z,50.50
2018-05-04T12:45:39.588Z,51.80
2018-05-04T12:48:05.815Z,50.50
2018-05-04T12:50:32.034Z,51.20
2018-05-04T12:52:58.312Z,53.10
2018-05-04T12:55:24.581Z,53.70
2018-05-04T12:57:50.789Z,52.20
2018-05-04T13:00:18.015Z,51.80
2018-05-04T13:02:44.257Z,51.80
2018-05-04T13:05:10.659Z,52.90
2018-05-04T13:07:37.143Z,52.80
2018-05-04T13:10:04.384Z,51.30
2018-05-04T13:12:31.514Z,52.00
2018-05-04T13:14:57.835Z,51.80
2018-05-04T13:17:24.297Z,52.10
2018-05-04T13:19:50.515Z,50.90
2018-05-04T13:22:17.084Z,53.00
2018-05-04T13:24:43.352Z,52.40
2018-05-04T13:27:09.790Z,53.00
2018-05-04T13:29:36.141Z,53.20
2018-05-04T13:32:02.349Z,53.00
2018-05-04T13:34:28.546Z,53.10
2018-05-04T13:36:54.910Z,53.50
2018-05-04T13:39:21.395Z,53.30
2018-05-04T13:41:47.596Z,52.60
2018-05-04T13:44:13.899Z,51.90
2018-05-04T13:46:40.131Z,52.20
2018-05-04T13:49:06.557Z,53.60
2018-05-04T13:51:33.656Z,52.30
2018-05-04T13:54:00.081Z,51.00
2018-05-04T13:56:27.090Z,52.50
2018-05-04T13:58:53.506Z,52.40
2018-05-04T14:01:19.951Z,53.30
2018-05-04T14:03:46.191Z,52.20
2018-05-04T14:06:12.557Z,51.50
2018-05-04T14:08:39.036Z,52.60
2018-05-04T14:11:05.581Z,53.10
2018-05-04T14:13:32.070Z,53.00
2018-05-04T14:15:58.293Z,53.70
2018-05-04T14:18:24.549Z,55.00
2018-05-04T14:20:50.795Z,55.00
2018-05-04T14:23:17.161Z,53.30
2018-05-04T14:25:44.249Z,52.90
2018-05-04T14:28:10.594Z,52.90
2018-05-04T14:30:36.840Z,53.00
2018-05-04T14:33:03.523Z,54.40
2018-05-04T14:35:30.099Z,53.60
2018-05-04T14:37:56.517Z,54.30
2018-05-04T14:40:22.792Z,54.50
2018-05-04T14:42:50.171Z,53.60
2018-05-04T14:45:16.390Z,53.60
2018-05-04T14:47:42.668Z,54.40
2018-05-04T14:50:08.920Z,54.30
2018-05-04T14:52:35.262Z,55.30
2018-05-04T14:55:02.374Z,54.00
2018-05-04T14:57:28.836Z,54.00
2018-05-04T14:59:55.886Z,54.40
2018-05-04T15:02:22.961Z,54.10
2018-05-04T15:04:49.261Z,54.10
2018-05-04T15:07:16.580Z,55.00
2018-05-04T15:09:42.964Z,55.00
2018-05-04T15:12:09.250Z,55.00
2018-05-04T15:14:35.465Z,55.00
2018-05-04T15:17:01.698Z,54.70
2018-05-04T15:19:28.041Z,56.00
2018-05-04T15:21:54.434Z,56.10
2018-05-04T15:24:20.647Z,54.70
2018-05-04T15:26:46.853Z,55.30
2018-05-04T15:29:14.065Z,54.90
2018-05-04T15:31:40.396Z,54.90
2018-05-04T15:34:06.734Z,54.80
2018-05-04T15:36:32.966Z,54.10
2018-05-04T15:38:59.291Z,54.60
2018-05-04T15:41:25.642Z,54.50
2018-05-04T15:43:52.631Z,55.80
2018-05-04T15:46:18.866Z,55.70
2018-05-04T15:48:51.450Z,55.70
2018-05-04T15:51:23.832Z,54.50
2018-05-04T15:53:50.062Z,54.30
2018-05-04T15:56:16.402Z,55.10
2018-05-04T15:58:42.622Z,55.10
2018-05-04T16:01:09.062Z,55.30
2018-05-04T16:03:35.297Z,55.60
2018-05-04T16:06:01.530Z,55.60
2018-05-04T16:08:28.561Z,57.00
2018-05-04T16:10:56.357Z,57.30
2018-05-04T16:13:22.647Z,57.30
2018-05-04T16:15:49.044Z,57.10
2018-05-04T16:18:15.285Z,56.30
2018-05-04T16:20:41.505Z,56.20
2018-05-04T16:23:07.803Z,56.60
2018-05-04T16:25:34.786Z,57.90
2018-05-04T16:28:01.084Z,58.40
2018-05-04T16:30:27.362Z,57.80
2018-05-04T16:32:53.635Z,57.70
2018-05-04T16:35:20.579Z,58.50
2018-05-04T16:37:47.743Z,57.90
2018-05-04T16:40:13.957Z,57.40
2018-05-04T16:42:41.031Z,57.30
2018-05-04T16:45:07.494Z,57.20
2018-05-04T16:47:33.782Z,57.20
2018-05-04T16:50:00.043Z,57.60
2018-05-04T16:52:26.380Z,58.60
2018-05-04T16:54:52.750Z,58.00
2018-05-04T16:57:19.817Z,59.00
2018-05-04T16:59:46.881Z,58.90
2018-05-04T17:02:13.208Z,59.10
2018-05-04T17:04:39.503Z,58.90
2018-05-04T17:07:06.462Z,59.50
2018-05-04T17:09:32.771Z,59.50
2018-05-04T17:11:59.877Z,60.30
2018-05-04T17:14:26.882Z,60.60
2018-05-04T17:16:53.126Z,60.60
2018-05-04T17:19:19.492Z,60.40
2018-05-04T17:21:45.929Z,60.20
2018-05-04T17:24:13.106Z,62.00
2018-05-04T17:26:40.086Z,60.50
2018-05-04T17:29:06.260Z,60.50
2018-05-04T17:31:32.530Z,61.40
2018-05-04T17:33:58.898Z,61.40
2018-05-04T17:36:25.282Z,61.20
2018-05-04T17:38:51.660Z,62.30
2018-05-04T17:41:18.110Z,62.30
2018-05-04T17:43:44.421Z,64.70
2018-05-04T17:46:10.619Z,64.50
2018-05-04T17:48:36.989Z,65.10
2018-05-04T17:51:03.288Z,65.00
2018-05-04T17:53:29.409Z,65.60
2018-05-04T17:55:55.657Z,65.50
2018-05-04T17:58:21.892Z,65.10
2018-05-04T18:00:48.231Z,66.60
2018-05-04T18:03:14.409Z,67.60
2018-05-04T18:05:41.097Z,68.90
2018-05-04T18:08:08.107Z,71.90
2018-05-04T18:10:34.476Z,71.70
2018-05-04T18:13:00.980Z,73.00
2018-05-04T18:15:27.321Z,74.80
2018-05-04T18:17:53.588Z,77.30
2018-05-04T18:20:20.799Z,82.80
2018-05-04T18:22:47.175Z,82.80
2018-05-04T18:25:14.182Z,90.20
2018-05-04T18:27:40.542Z,90.20
2018-05-04T18:30:07.553Z,93.30
2018-05-04T18:32:33.933Z,93.20
2018-05-04T18:35:01.044Z,94.40
2018-05-04T18:37:27.368Z,94.40
2018-05-04T18:39:54.636Z,94.70
2018-05-04T18:42:21.047Z,96.00
2018-05-04T18:44:47.256Z,97.30
2018-05-04T18:47:13.705Z,98.30
2018-05-04T18:49:39.909Z,98.60
2018-05-04T18:52:06.185Z,99.30
2018-05-04T18:54:32.554Z,99.30
2018-05-04T18:56:58.740Z,99.50
2018-05-04T18:59:25.147Z,99.90
2018-05-04T19:01:51.460Z,99.90
2018-05-04T19:04:18.618Z,99.90
2018-05-04T19:06:44.836Z,99.90
2018-05-04T19:09:11.049Z,99.90
2018-05-04T19:11:37.270Z,99.90
2018-05-04T19:14:04.379Z,99.90
2018-05-04T19:16:30.915Z,99.90
2018-05-04T19:18:57.275Z,99.90
2018-05-04T19:21:23.572Z,99.90
2018-05-04T19:23:49.774Z,99.90
2018-05-04T19:26:16.108Z,99.90
2018-05-04T19:28:42.375Z,99.90
2018-05-04T19:31:09.586Z,99.90
2018-05-04T19:33:36.047Z,99.90
2018-05-04T19:36:03.047Z,99.90
2018-05-04T19:38:29.524Z,99.90
2018-05-04T19:40:56.689Z,99.90
2018-05-04T19:43:23.610Z,99.90
2018-05-04T19:45:50.833Z,99.90
2018-05-04T19:48:17.150Z,99.90
2018-05-04T19:50:43.459Z,99.90
2018-05-04T19:53:09.849Z,99.90
2018-05-04T19:55:36.166Z,99.90
2018-05-04T19:58:03.636Z,99.90
2018-05-04T20:00:30.079Z,99.90
2018-05-04T20:02:56.530Z,99.90
2018-05-04T20:05:23.937Z,99.90
2018-05-04T20:07:50.570Z,99.90
2018-05-04T20:10:17.129Z,99.90
2018-05-04T20:12:44.259Z,99.90
2018-05-04T20:15:10.544Z,99.90
2018-05-04T20:17:36.886Z,99.90
2018-05-04T20:20:03.435Z,99.90
2018-05-04T20:22:29.657Z,99.90
2018-05-04T20:24:56.112Z,99.90
2018-05-04T20:27:22.353Z,99.90
2018-05-04T20:29:49.499Z,99.90
2018-05-04T20:32:15.821Z,99.90
2018-05-04T20:34:43.560Z,99.90
2018-05-04T20:37:09.975Z,99.90
2018-05-04T20:39:36.279Z,99.90
2018-05-04T20:42:03.287Z,99.90
2018-05-04T20:44:29.613Z,99.90
2018-05-04T20:46:56.752Z,99.90
2018-05-04T20:49:23.089Z,99.90
2018-05-04T20:51:49.356Z,99.90
2018-05-04T20:54:16.376Z,99.90
2018-05-04T20:56:42.723Z,99.90
2018-05-04T20:59:09.711Z,99.90
2018-05-04T21:01:35.996Z,99.90
2018-05-04T21:04:02.996Z,99.90
2018-05-04T21:06:29.241Z,99.90
2018-05-04T21:08:55.598Z,99.90
2018-05-04T21:11:21.945Z,99.90
2018-05-04T21:13:48.257Z,99.90
2018-05-04T21:16:14.445Z,99.90
2018-05-04T21:18:40.786Z,99.90
2018-05-04T21:21:07.844Z,99.90
2018-05-04T21:23:34.265Z,99.90
2018-05-04T21:26:00.524Z,99.90
2018-05-04T21:28:27.596Z,99.90
2018-05-04T21:30:53.928Z,99.90
2018-05-04T21:33:20.499Z,99.90
2018-05-04T21:35:46.712Z,99.90
2018-05-04T21:38:13.112Z,99.90
2018-05-04T21:40:39.386Z,99.90
2018-05-04T21:43:05.581Z,99.90
2018-05-04T21:45:31.986Z,99.90
2018-05-04T21:47:59.276Z,99.90
2018-05-04T21:50:25.605Z,99.90
2018-05-04T21:52:52.556Z,99.90
2018-05-04T21:55:19.049Z,99.90
2018-05-04T21:57:46.090Z,99.90
2018-05-04T22:00:13.254Z,99.90
2018-05-04T22:02:39.396Z,99.90
2018-05-04T22:05:05.650Z,99.90
2018-05-04T22:07:32.450Z,99.90
2018-05-04T22:09:58.964Z,99.90
2018-05-04T22:12:26.136Z,99.90
2018-05-04T22:14:52.625Z,99.90
2018-05-04T22:17:20.309Z,99.90
2018-05-04T22:19:47.414Z,99.90
2018-05-04T22:22:13.801Z,99.90
2018-05-04T22:24:39.950Z,99.90
2018-05-04T22:27:06.156Z,99.90
2018-05-04T22:29:32.644Z,99.90
2018-05-04T22:31:59.607Z,99.90
2018-05-04T22:34:26.638Z,99.90
2018-05-04T22:36:53.779Z,99.90
2018-05-04T22:39:20.057Z,99.90
2018-05-04T22:41:46.337Z,99.90
2018-05-04T22:44:12.533Z,99.90
2018-05-04T22:46:38.831Z,99.90
2018-05-04T22:49:05.739Z,99.90
2018-05-04T22:51:32.842Z,99.90
2018-05-04T22:53:59.051Z,99.90
2018-05-04T22:56:26.083Z,99.90
2018-05-04T22:58:52.285Z,99.90
2018-05-04T23:01:18.497Z,99.90
2018-05-04T23:03:44.674Z,99.90
2018-05-04T23:06:10.991Z,99.90
2018-05-04T23:08:37.393Z,99.90
2018-05-04T23:11:03.693Z,99.90
2018-05-04T23:13:30.444Z,99.90
2018-05-04T23:15:56.678Z,99.90
2018-05-04T23:18:22.937Z,99.90
2018-05-04T23:20:49.191Z,99.90
2018-05-04T23:23:15.467Z,99.90
2018-05-04T23:25:41.616Z,99.90
2018-05-04T23:28:07.850Z,99.90
2018-05-04T23:30:34.819Z,99.90
2018-05-04T23:33:01.513Z,99.90
2018-05-04T23:35:28.629Z,99.90
2018-05-04T23:37:54.912Z,99.90
2018-05-04T23:40:21.964Z,99.90
2018-05-04T23:42:49.476Z,99.90
2018-05-04T23:45:16.832Z,99.90
2018-05-04T23:47:43.177Z,99.90
2018-05-04T23:50:10.845Z,99.90
2018-05-04T23:52:37.077Z,99.90
2018-05-04T23:55:04.088Z,99.90
2018-05-04T23:57:30.270Z,99.90
2018-05-04T23:59:56.527Z,99.90
